sensor_id;sensor_type;location;lat;lon;timestamp;P1;durP1;ratioP1;P2;durP2;ratioP2
35074;SDS011;21260;34.984;32.490;2023-02-27T00:01:49;17.90;;;16.00;;
35074;SDS011;21260;34.984;32.490;2023-02-27T00:04:15;21.00;;;16.83;;
35074;SDS011;21260;34.984;32.490;2023-02-27T00:06:41;18.77;;;16.97;;
35074;SDS011;21260;34.984;32.490;2023-02-27T00:09:07;19.73;;;17.10;;
35074;SDS011;21260;34.984;32.490;2023-02-27T00:11:33;19.20;;;17.20;;
35074;SDS011;21260;34.984;32.490;2023-02-27T00:14:02;19.23;;;16.90;;
35074;SDS011;21260;34.984;32.490;2023-02-27T00:16:29;20.00;;;17.70;;
35074;SDS011;21260;34.984;32.490;2023-02-27T00:18:55;22.10;;;17.80;;
35074;SDS011;21260;34.984;32.490;2023-02-27T00:21:25;20.10;;;18.00;;
35074;SDS011;21260;34.984;32.490;2023-02-27T00:23:52;19.03;;;17.03;;
35074;SDS011;21260;34.984;32.490;2023-02-27T00:26:22;19.63;;;17.63;;
35074;SDS011;21260;34.984;32.490;2023-02-27T00:28:48;20.13;;;17.77;;
35074;SDS011;21260;34.984;32.490;2023-02-27T00:31:15;20.57;;;17.90;;
35074;SDS011;21260;34.984;32.490;2023-02-27T00:33:41;19.77;;;17.60;;
35074;SDS011;21260;34.984;32.490;2023-02-27T00:36:07;22.03;;;18.03;;
35074;SDS011;21260;34.984;32.490;2023-02-27T00:38:34;18.27;;;16.37;;
35074;SDS011;21260;34.984;32.490;2023-02-27T00:41:00;19.37;;;16.67;;
35074;SDS011;21260;34.984;32.490;2023-02-27T00:43:27;20.23;;;16.80;;
35074;SDS011;21260;34.984;32.490;2023-02-27T00:45:53;19.10;;;16.87;;
35074;SDS011;21260;34.984;32.490;2023-02-27T00:48:19;18.93;;;16.93;;
35074;SDS011;21260;34.984;32.490;2023-02-27T00:50:45;17.97;;;16.07;;
35074;SDS011;21260;34.984;32.490;2023-02-27T00:53:13;17.90;;;16.03;;
35074;SDS011;21260;34.984;32.490;2023-02-27T00:55:39;17.33;;;15.53;;
35074;SDS011;21260;34.984;32.490;2023-02-27T00:58:06;17.33;;;15.60;;
35074;SDS011;21260;34.984;32.490;2023-02-27T01:00:34;16.77;;;15.00;;
35074;SDS011;21260;34.984;32.490;2023-02-27T01:03:00;18.87;;;15.57;;
35074;SDS011;21260;34.984;32.490;2023-02-27T01:05:26;16.97;;;14.13;;
35074;SDS011;21260;34.984;32.490;2023-02-27T01:07:52;19.37;;;14.90;;
35074;SDS011;21260;34.984;32.490;2023-02-27T01:10:19;17.93;;;15.03;;
35074;SDS011;21260;34.984;32.490;2023-02-27T01:12:46;17.77;;;15.93;;
35074;SDS011;21260;34.984;32.490;2023-02-27T01:15:12;17.03;;;15.23;;
35074;SDS011;21260;34.984;32.490;2023-02-27T01:17:40;18.87;;;16.20;;
35074;SDS011;21260;34.984;32.490;2023-02-27T01:20:06;16.93;;;15.13;;
35074;SDS011;21260;34.984;32.490;2023-02-27T01:22:36;17.13;;;15.33;;
35074;SDS011;21260;34.984;32.490;2023-02-27T01:25:02;17.47;;;15.13;;
35074;SDS011;21260;34.984;32.490;2023-02-27T01:27:29;17.30;;;15.10;;
35074;SDS011;21260;34.984;32.490;2023-02-27T01:29:56;17.90;;;15.60;;
35074;SDS011;21260;34.984;32.490;2023-02-27T01:32:22;15.63;;;14.03;;
35074;SDS011;21260;34.984;32.490;2023-02-27T01:34:49;16.73;;;14.40;;
35074;SDS011;21260;34.984;32.490;2023-02-27T01:37:15;17.17;;;14.70;;
35074;SDS011;21260;34.984;32.490;2023-02-27T01:39:42;17.80;;;15.90;;
35074;SDS011;21260;34.984;32.490;2023-02-27T01:42:27;18.73;;;15.73;;
35074;SDS011;21260;34.984;32.490;2023-02-27T01:48:25;17.40;;;15.57;;
35074;SDS011;21260;34.984;32.490;2023-02-27T01:51:05;18.87;;;16.00;;
35074;SDS011;21260;34.984;32.490;2023-02-27T01:53:44;18.20;;;15.63;;
35074;SDS011;21260;34.984;32.490;2023-02-27T01:56:17;18.57;;;15.83;;
35074;SDS011;21260;34.984;32.490;2023-02-27T01:58:48;18.73;;;16.73;;
35074;SDS011;21260;34.984;32.490;2023-02-27T02:01:18;19.37;;;16.40;;
35074;SDS011;21260;34.984;32.490;2023-02-27T02:06:41;19.27;;;16.83;;
35074;SDS011;21260;34.984;32.490;2023-02-27T02:09:14;18.50;;;16.30;;
35074;SDS011;21260;34.984;32.490;2023-02-27T02:11:45;18.50;;;16.60;;
35074;SDS011;21260;34.984;32.490;2023-02-27T02:14:12;19.10;;;16.87;;
35074;SDS011;21260;34.984;32.490;2023-02-27T02:16:58;18.07;;;16.17;;
35074;SDS011;21260;34.984;32.490;2023-02-27T02:25:38;18.73;;;16.57;;
35074;SDS011;21260;34.984;32.490;2023-02-27T02:47:29;16.23;;;13.33;;
35074;SDS011;21260;34.984;32.490;2023-02-27T02:53:50;11.37;;;10.17;;
35074;SDS011;21260;34.984;32.490;2023-02-27T03:00:06;10.47;;;9.00;;
35074;SDS011;21260;34.984;32.490;2023-02-27T03:02:54;12.07;;;9.50;;
35074;SDS011;21260;34.984;32.490;2023-02-27T03:06:22;9.20;;;8.27;;
35074;SDS011;21260;34.984;32.490;2023-02-27T03:12:10;8.60;;;6.73;;
35074;SDS011;21260;34.984;32.490;2023-02-27T03:14:48;7.80;;;5.70;;
35074;SDS011;21260;34.984;32.490;2023-02-27T03:17:49;7.20;;;5.60;;
35074;SDS011;21260;34.984;32.490;2023-02-27T03:20:30;5.77;;;5.00;;
35074;SDS011;21260;34.984;32.490;2023-02-27T03:23:11;7.93;;;5.60;;
35074;SDS011;21260;34.984;32.490;2023-02-27T03:25:46;6.17;;;5.03;;
35074;SDS011;21260;34.984;32.490;2023-02-27T03:28:22;8.40;;;5.00;;
35074;SDS011;21260;34.984;32.490;2023-02-27T03:31:06;6.90;;;5.13;;
35074;SDS011;21260;34.984;32.490;2023-02-27T03:34:11;8.93;;;5.73;;
35074;SDS011;21260;34.984;32.490;2023-02-27T03:42:46;7.03;;;6.17;;
35074;SDS011;21260;34.984;32.490;2023-02-27T03:45:41;10.77;;;7.00;;
35074;SDS011;21260;34.984;32.490;2023-02-27T03:48:18;9.27;;;7.57;;
35074;SDS011;21260;34.984;32.490;2023-02-27T03:50:45;8.63;;;7.77;;
35074;SDS011;21260;34.984;32.490;2023-02-27T03:53:15;8.87;;;7.47;;
35074;SDS011;21260;34.984;32.490;2023-02-27T03:56:02;8.03;;;6.57;;
35074;SDS011;21260;34.984;32.490;2023-02-27T03:58:32;9.67;;;6.53;;
35074;SDS011;21260;34.984;32.490;2023-02-27T04:01:00;8.63;;;6.10;;
35074;SDS011;21260;34.984;32.490;2023-02-27T04:03:27;7.23;;;5.83;;
35074;SDS011;21260;34.984;32.490;2023-02-27T04:05:56;7.83;;;5.47;;
35074;SDS011;21260;34.984;32.490;2023-02-27T04:20:55;7.20;;;6.17;;
35074;SDS011;21260;34.984;32.490;2023-02-27T04:26:36;8.27;;;6.27;;
35074;SDS011;21260;34.984;32.490;2023-02-27T04:29:29;8.27;;;6.30;;
35074;SDS011;21260;34.984;32.490;2023-02-27T04:35:48;9.40;;;5.90;;
35074;SDS011;21260;34.984;32.490;2023-02-27T04:38:37;8.90;;;5.73;;
35074;SDS011;21260;34.984;32.490;2023-02-27T04:41:25;10.53;;;6.33;;
35074;SDS011;21260;34.984;32.490;2023-02-27T04:43:59;9.33;;;6.10;;
35074;SDS011;21260;34.984;32.490;2023-02-27T04:46:27;8.47;;;6.00;;
35074;SDS011;21260;34.984;32.490;2023-02-27T04:49:10;8.57;;;5.43;;
35074;SDS011;21260;34.984;32.490;2023-02-27T04:51:51;6.13;;;5.07;;
35074;SDS011;21260;34.984;32.490;2023-02-27T04:54:31;9.53;;;5.73;;
35074;SDS011;21260;34.984;32.490;2023-02-27T04:57:07;6.30;;;5.27;;
35074;SDS011;21260;34.984;32.490;2023-02-27T04:59:41;9.00;;;6.17;;
35074;SDS011;21260;34.984;32.490;2023-02-27T05:02:18;7.77;;;5.60;;
35074;SDS011;21260;34.984;32.490;2023-02-27T05:04:54;6.33;;;5.03;;
35074;SDS011;21260;34.984;32.490;2023-02-27T05:07:30;9.30;;;5.57;;
35074;SDS011;21260;34.984;32.490;2023-02-27T05:10:07;9.23;;;6.17;;
35074;SDS011;21260;34.984;32.490;2023-02-27T05:12:51;11.23;;;5.60;;
35074;SDS011;21260;34.984;32.490;2023-02-27T05:15:26;10.20;;;5.70;;
35074;SDS011;21260;34.984;32.490;2023-02-27T05:18:07;10.73;;;5.40;;
35074;SDS011;21260;34.984;32.490;2023-02-27T05:20:46;7.23;;;5.60;;
35074;SDS011;21260;34.984;32.490;2023-02-27T05:23:43;9.03;;;5.97;;
35074;SDS011;21260;34.984;32.490;2023-02-27T05:27:09;8.97;;;6.57;;
35074;SDS011;21260;34.984;32.490;2023-02-27T05:29:44;11.20;;;6.20;;
35074;SDS011;21260;34.984;32.490;2023-02-27T05:35:23;8.30;;;5.70;;
35074;SDS011;21260;34.984;32.490;2023-02-27T05:38:41;13.20;;;6.00;;
35074;SDS011;21260;34.984;32.490;2023-02-27T05:41:15;7.50;;;5.70;;
35074;SDS011;21260;34.984;32.490;2023-02-27T05:43:56;8.70;;;6.47;;
35074;SDS011;21260;34.984;32.490;2023-02-27T05:46:48;12.07;;;6.00;;
35074;SDS011;21260;34.984;32.490;2023-02-27T05:49:48;8.30;;;6.00;;
35074;SDS011;21260;34.984;32.490;2023-02-27T05:52:34;8.27;;;5.87;;
35074;SDS011;21260;34.984;32.490;2023-02-27T05:55:21;11.77;;;5.80;;
35074;SDS011;21260;34.984;32.490;2023-02-27T05:58:02;8.67;;;5.50;;
35074;SDS011;21260;34.984;32.490;2023-02-27T06:00:42;10.07;;;5.77;;
35074;SDS011;21260;34.984;32.490;2023-02-27T06:03:13;11.63;;;5.00;;
35074;SDS011;21260;34.984;32.490;2023-02-27T06:05:41;6.80;;;5.03;;
35074;SDS011;21260;34.984;32.490;2023-02-27T06:08:13;4.67;;;4.13;;
35074;SDS011;21260;34.984;32.490;2023-02-27T06:10:39;9.30;;;5.10;;
35074;SDS011;21260;34.984;32.490;2023-02-27T06:13:05;6.10;;;4.27;;
35074;SDS011;21260;34.984;32.490;2023-02-27T06:15:34;7.07;;;4.60;;
35074;SDS011;21260;34.984;32.490;2023-02-27T06:18:01;6.70;;;4.90;;
35074;SDS011;21260;34.984;32.490;2023-02-27T06:20:27;7.60;;;5.40;;
35074;SDS011;21260;34.984;32.490;2023-02-27T06:22:53;6.10;;;4.57;;
35074;SDS011;21260;34.984;32.490;2023-02-27T06:25:20;8.00;;;5.67;;
35074;SDS011;21260;34.984;32.490;2023-02-27T06:27:46;6.00;;;4.80;;
35074;SDS011;21260;34.984;32.490;2023-02-27T06:30:13;6.10;;;5.47;;
35074;SDS011;21260;34.984;32.490;2023-02-27T06:32:40;6.00;;;5.23;;
35074;SDS011;21260;34.984;32.490;2023-02-27T06:35:06;6.67;;;5.60;;
35074;SDS011;21260;34.984;32.490;2023-02-27T06:37:33;10.73;;;5.37;;
35074;SDS011;21260;34.984;32.490;2023-02-27T06:39:59;8.90;;;5.97;;
35074;SDS011;21260;34.984;32.490;2023-02-27T06:42:25;8.07;;;6.57;;
35074;SDS011;21260;34.984;32.490;2023-02-27T06:44:52;8.73;;;6.00;;
35074;SDS011;21260;34.984;32.490;2023-02-27T06:47:18;9.27;;;6.00;;
35074;SDS011;21260;34.984;32.490;2023-02-27T06:49:45;8.97;;;6.07;;
35074;SDS011;21260;34.984;32.490;2023-02-27T06:52:11;7.57;;;6.40;;
35074;SDS011;21260;34.984;32.490;2023-02-27T06:54:38;9.73;;;7.30;;
35074;SDS011;21260;34.984;32.490;2023-02-27T06:57:04;10.33;;;7.40;;
35074;SDS011;21260;34.984;32.490;2023-02-27T06:59:30;8.93;;;7.03;;
35074;SDS011;21260;34.984;32.490;2023-02-27T07:01:57;11.53;;;5.50;;
35074;SDS011;21260;34.984;32.490;2023-02-27T07:04:26;8.67;;;6.40;;
35074;SDS011;21260;34.984;32.490;2023-02-27T07:06:52;9.27;;;6.03;;
35074;SDS011;21260;34.984;32.490;2023-02-27T07:09:18;7.53;;;5.47;;
35074;SDS011;21260;34.984;32.490;2023-02-27T07:11:45;11.60;;;5.70;;
35074;SDS011;21260;34.984;32.490;2023-02-27T07:14:11;8.30;;;5.03;;
35074;SDS011;21260;34.984;32.490;2023-02-27T07:16:40;5.67;;;4.60;;
35074;SDS011;21260;34.984;32.490;2023-02-27T07:19:06;6.93;;;4.67;;
35074;SDS011;21260;34.984;32.490;2023-02-27T07:21:32;6.83;;;4.90;;
35074;SDS011;21260;34.984;32.490;2023-02-27T07:23:59;6.20;;;4.63;;
35074;SDS011;21260;34.984;32.490;2023-02-27T07:26:26;6.50;;;4.30;;
35074;SDS011;21260;34.984;32.490;2023-02-27T07:28:53;6.70;;;4.47;;
35074;SDS011;21260;34.984;32.490;2023-02-27T07:31:19;12.13;;;4.33;;
35074;SDS011;21260;34.984;32.490;2023-02-27T07:33:45;8.57;;;3.80;;
35074;SDS011;21260;34.984;32.490;2023-02-27T07:36:11;5.67;;;3.57;;
35074;SDS011;21260;34.984;32.490;2023-02-27T07:38:37;5.57;;;3.63;;
35074;SDS011;21260;34.984;32.490;2023-02-27T07:41:04;5.93;;;4.80;;
35074;SDS011;21260;34.984;32.490;2023-02-27T07:43:30;7.97;;;4.73;;
35074;SDS011;21260;34.984;32.490;2023-02-27T07:45:56;8.73;;;6.23;;
35074;SDS011;21260;34.984;32.490;2023-02-27T07:48:23;7.77;;;5.60;;
35074;SDS011;21260;34.984;32.490;2023-02-27T07:50:49;8.67;;;6.13;;
35074;SDS011;21260;34.984;32.490;2023-02-27T07:53:16;8.87;;;5.70;;
35074;SDS011;21260;34.984;32.490;2023-02-27T07:55:45;8.30;;;6.13;;
35074;SDS011;21260;34.984;32.490;2023-02-27T07:58:11;5.90;;;4.67;;
35074;SDS011;21260;34.984;32.490;2023-02-27T08:00:38;8.63;;;6.13;;
35074;SDS011;21260;34.984;32.490;2023-02-27T08:03:04;8.77;;;6.20;;
35074;SDS011;21260;34.984;32.490;2023-02-27T08:05:31;8.43;;;5.27;;
35074;SDS011;21260;34.984;32.490;2023-02-27T08:07:57;6.70;;;5.83;;
35074;SDS011;21260;34.984;32.490;2023-02-27T08:10:23;11.07;;;6.63;;
35074;SDS011;21260;34.984;32.490;2023-02-27T08:12:50;9.87;;;6.63;;
35074;SDS011;21260;34.984;32.490;2023-02-27T08:15:17;9.63;;;6.57;;
35074;SDS011;21260;34.984;32.490;2023-02-27T08:17:44;9.13;;;6.60;;
35074;SDS011;21260;34.984;32.490;2023-02-27T08:20:11;9.03;;;6.13;;
35074;SDS011;21260;34.984;32.490;2023-02-27T08:22:39;7.57;;;6.53;;
35074;SDS011;21260;34.984;32.490;2023-02-27T08:25:06;9.60;;;6.77;;
35074;SDS011;21260;34.984;32.490;2023-02-27T08:27:37;10.73;;;6.37;;
35074;SDS011;21260;34.984;32.490;2023-02-27T08:30:05;6.47;;;5.73;;
35074;SDS011;21260;34.984;32.490;2023-02-27T08:32:34;11.60;;;6.20;;
35074;SDS011;21260;34.984;32.490;2023-02-27T08:35:02;7.87;;;6.00;;
35074;SDS011;21260;34.984;32.490;2023-02-27T08:37:30;10.23;;;6.20;;
35074;SDS011;21260;34.984;32.490;2023-02-27T08:39:56;7.87;;;6.47;;
35074;SDS011;21260;34.984;32.490;2023-02-27T08:42:23;8.30;;;5.63;;
35074;SDS011;21260;34.984;32.490;2023-02-27T08:44:49;8.30;;;5.60;;
35074;SDS011;21260;34.984;32.490;2023-02-27T08:47:16;13.80;;;5.73;;
35074;SDS011;21260;34.984;32.490;2023-02-27T08:49:42;9.57;;;6.03;;
35074;SDS011;21260;34.984;32.490;2023-02-27T08:52:09;8.67;;;5.27;;
35074;SDS011;21260;34.984;32.490;2023-02-27T08:54:35;8.23;;;5.70;;
35074;SDS011;21260;34.984;32.490;2023-02-27T08:57:02;10.07;;;5.17;;
35074;SDS011;21260;34.984;32.490;2023-02-27T08:59:29;8.57;;;5.10;;
35074;SDS011;21260;34.984;32.490;2023-02-27T09:01:57;6.77;;;5.00;;
35074;SDS011;21260;34.984;32.490;2023-02-27T09:04:23;12.43;;;4.90;;
35074;SDS011;21260;34.984;32.490;2023-02-27T09:06:50;6.17;;;4.37;;
35074;SDS011;21260;34.984;32.490;2023-02-27T09:09:19;7.20;;;4.60;;
35074;SDS011;21260;34.984;32.490;2023-02-27T09:11:48;7.47;;;4.07;;
35074;SDS011;21260;34.984;32.490;2023-02-27T09:14:15;8.37;;;4.13;;
35074;SDS011;21260;34.984;32.490;2023-02-27T09:16:43;6.40;;;3.73;;
35074;SDS011;21260;34.984;32.490;2023-02-27T09:19:10;6.27;;;3.53;;
35074;SDS011;21260;34.984;32.490;2023-02-27T09:21:38;6.60;;;4.23;;
35074;SDS011;21260;34.984;32.490;2023-02-27T09:24:06;10.10;;;4.90;;
35074;SDS011;21260;34.984;32.490;2023-02-27T09:26:34;7.00;;;4.50;;
35074;SDS011;21260;34.984;32.490;2023-02-27T09:29:01;11.93;;;5.10;;
35074;SDS011;21260;34.984;32.490;2023-02-27T09:31:28;7.70;;;4.70;;
35074;SDS011;21260;34.984;32.490;2023-02-27T09:33:54;8.93;;;5.20;;
35074;SDS011;21260;34.984;32.490;2023-02-27T09:36:22;8.97;;;4.33;;
35074;SDS011;21260;34.984;32.490;2023-02-27T09:38:49;7.90;;;4.03;;
35074;SDS011;21260;34.984;32.490;2023-02-27T09:41:20;6.43;;;4.90;;
35074;SDS011;21260;34.984;32.490;2023-02-27T09:44:12;7.43;;;4.00;;
35074;SDS011;21260;34.984;32.490;2023-02-27T09:47:13;5.90;;;3.93;;
35074;SDS011;21260;34.984;32.490;2023-02-27T09:52:27;8.83;;;3.97;;
35074;SDS011;21260;34.984;32.490;2023-02-27T09:54:56;7.07;;;4.13;;
35074;SDS011;21260;34.984;32.490;2023-02-27T09:57:26;7.50;;;4.37;;
35074;SDS011;21260;34.984;32.490;2023-02-27T10:03:23;5.23;;;3.73;;
35074;SDS011;21260;34.984;32.490;2023-02-27T10:14:25;9.90;;;4.90;;
35074;SDS011;21260;34.984;32.490;2023-02-27T10:17:04;7.67;;;4.70;;
35074;SDS011;21260;34.984;32.490;2023-02-27T10:19:45;10.63;;;4.70;;
35074;SDS011;21260;34.984;32.490;2023-02-27T10:22:18;14.33;;;5.43;;
35074;SDS011;21260;34.984;32.490;2023-02-27T10:25:11;7.50;;;5.33;;
35074;SDS011;21260;34.984;32.490;2023-02-27T10:27:42;11.50;;;5.40;;
35074;SDS011;21260;34.984;32.490;2023-02-27T10:30:19;8.63;;;6.17;;
35074;SDS011;21260;34.984;32.490;2023-02-27T10:32:55;7.13;;;5.20;;
35074;SDS011;21260;34.984;32.490;2023-02-27T10:35:56;9.67;;;5.23;;
35074;SDS011;21260;34.984;32.490;2023-02-27T10:38:31;7.73;;;5.90;;
35074;SDS011;21260;34.984;32.490;2023-02-27T10:41:03;6.73;;;5.60;;
35074;SDS011;21260;34.984;32.490;2023-02-27T10:43:34;8.63;;;5.27;;
35074;SDS011;21260;34.984;32.490;2023-02-27T10:46:02;13.43;;;6.37;;
35074;SDS011;21260;34.984;32.490;2023-02-27T10:48:39;12.90;;;5.90;;
35074;SDS011;21260;34.984;32.490;2023-02-27T10:56:46;9.07;;;5.63;;
35074;SDS011;21260;34.984;32.490;2023-02-27T10:59:26;9.73;;;5.70;;
35074;SDS011;21260;34.984;32.490;2023-02-27T11:02:00;9.38;;;5.97;;
35074;SDS011;21260;34.984;32.490;2023-02-27T11:04:44;9.73;;;5.50;;
35074;SDS011;21260;34.984;32.490;2023-02-27T11:07:32;13.45;;;6.60;;
35074;SDS011;21260;34.984;32.490;2023-02-27T11:12:39;14.05;;;6.47;;
35074;SDS011;21260;34.984;32.490;2023-02-27T11:15:21;11.63;;;7.05;;
35074;SDS011;21260;34.984;32.490;2023-02-27T11:17:51;9.68;;;6.47;;
35074;SDS011;21260;34.984;32.490;2023-02-27T11:25:48;13.07;;;6.47;;
35074;SDS011;21260;34.984;32.490;2023-02-27T11:31:06;9.43;;;6.93;;
35074;SDS011;21260;34.984;32.490;2023-02-27T11:33:54;18.17;;;7.68;;
35074;SDS011;21260;34.984;32.490;2023-02-27T11:36:43;12.55;;;8.18;;
35074;SDS011;21260;34.984;32.490;2023-02-27T11:44:52;18.07;;;9.50;;
35074;SDS011;21260;34.984;32.490;2023-02-27T11:47:32;13.47;;;9.30;;
35074;SDS011;21260;34.984;32.490;2023-02-27T11:56:13;14.77;;;10.60;;
35074;SDS011;21260;34.984;32.490;2023-02-27T11:58:59;12.70;;;8.37;;
35074;SDS011;21260;34.984;32.490;2023-02-27T12:05:18;9.87;;;8.30;;
35074;SDS011;21260;34.984;32.490;2023-02-27T12:07:54;10.97;;;8.60;;
35074;SDS011;21260;34.984;32.490;2023-02-27T12:13:46;11.95;;;8.02;;
35074;SDS011;21260;34.984;32.490;2023-02-27T12:16:23;18.57;;;8.90;;
35074;SDS011;21260;34.984;32.490;2023-02-27T12:21:46;17.17;;;9.40;;
35074;SDS011;21260;34.984;32.490;2023-02-27T12:24:37;15.87;;;9.10;;
35074;SDS011;21260;34.984;32.490;2023-02-27T12:27:30;10.93;;;8.10;;
35074;SDS011;21260;34.984;32.490;2023-02-27T12:36:25;15.00;;;10.07;;
35074;SDS011;21260;34.984;32.490;2023-02-27T12:38:51;15.07;;;10.70;;
35074;SDS011;21260;34.984;32.490;2023-02-27T12:41:40;14.40;;;9.73;;
35074;SDS011;21260;34.984;32.490;2023-02-27T12:50:18;11.70;;;8.40;;
35074;SDS011;21260;34.984;32.490;2023-02-27T12:56:31;17.93;;;8.70;;
35074;SDS011;21260;34.984;32.490;2023-02-27T13:05:30;15.67;;;9.27;;
35074;SDS011;21260;34.984;32.490;2023-02-27T13:08:26;15.07;;;8.77;;
35074;SDS011;21260;34.984;32.490;2023-02-27T13:11:23;12.37;;;7.97;;
35074;SDS011;21260;34.984;32.490;2023-02-27T13:14:24;12.47;;;8.57;;
35074;SDS011;21260;34.984;32.490;2023-02-27T13:17:16;11.17;;;7.87;;
35074;SDS011;21260;34.984;32.490;2023-02-27T13:20:29;13.90;;;7.63;;
35074;SDS011;21260;34.984;32.490;2023-02-27T13:23:20;14.07;;;7.67;;
35074;SDS011;21260;34.984;32.490;2023-02-27T13:26:16;11.10;;;7.93;;
35074;SDS011;21260;34.984;32.490;2023-02-27T13:28:50;17.30;;;8.90;;
35074;SDS011;21260;34.984;32.490;2023-02-27T13:36:49;12.13;;;7.30;;
35074;SDS011;21260;34.984;32.490;2023-02-27T13:47:40;19.27;;;8.73;;
35074;SDS011;21260;34.984;32.490;2023-02-27T13:52:45;14.83;;;8.03;;
35074;SDS011;21260;34.984;32.490;2023-02-27T13:55:26;11.53;;;7.97;;
35074;SDS011;21260;34.984;32.490;2023-02-27T13:57:59;11.60;;;7.67;;
35074;SDS011;21260;34.984;32.490;2023-02-27T14:00:32;10.53;;;8.17;;
35074;SDS011;21260;34.984;32.490;2023-02-27T14:03:05;13.67;;;8.17;;
35074;SDS011;21260;34.984;32.490;2023-02-27T14:05:46;10.77;;;7.70;;
35074;SDS011;21260;34.984;32.490;2023-02-27T14:08:22;11.63;;;8.47;;
35074;SDS011;21260;34.984;32.490;2023-02-27T14:11:10;11.37;;;8.50;;
35074;SDS011;21260;34.984;32.490;2023-02-27T14:24:38;13.17;;;10.50;;
35074;SDS011;21260;34.984;32.490;2023-02-27T14:27:18;21.13;;;10.20;;
35074;SDS011;21260;34.984;32.490;2023-02-27T14:29:51;17.10;;;11.20;;
35074;SDS011;21260;34.984;32.490;2023-02-27T14:32:23;14.73;;;10.53;;
35074;SDS011;21260;34.984;32.490;2023-02-27T14:34:55;11.03;;;9.87;;
35074;SDS011;21260;34.984;32.490;2023-02-27T14:37:22;16.50;;;10.13;;
35074;SDS011;21260;34.984;32.490;2023-02-27T14:39:51;16.00;;;10.23;;
35074;SDS011;21260;34.984;32.490;2023-02-27T14:45:19;14.73;;;10.60;;
35074;SDS011;21260;34.984;32.490;2023-02-27T14:47:49;17.73;;;10.50;;
35074;SDS011;21260;34.984;32.490;2023-02-27T14:50:31;12.40;;;10.03;;
35074;SDS011;21260;34.984;32.490;2023-02-27T14:53:02;19.17;;;10.97;;
35074;SDS011;21260;34.984;32.490;2023-02-27T14:55:34;14.33;;;10.43;;
35074;SDS011;21260;34.984;32.490;2023-02-27T14:58:15;12.10;;;10.60;;
35074;SDS011;21260;34.984;32.490;2023-02-27T15:03:38;16.30;;;11.07;;
35074;SDS011;21260;34.984;32.490;2023-02-27T15:06:14;19.47;;;11.40;;
35074;SDS011;21260;34.984;32.490;2023-02-27T15:08:52;14.57;;;9.90;;
35074;SDS011;21260;34.984;32.490;2023-02-27T15:11:21;12.17;;;8.83;;
35074;SDS011;21260;34.984;32.490;2023-02-27T15:13:56;16.43;;;8.00;;
35074;SDS011;21260;34.984;32.490;2023-02-27T15:16:33;10.53;;;7.87;;
35074;SDS011;21260;34.984;32.490;2023-02-27T15:19:17;11.40;;;7.80;;
35074;SDS011;21260;34.984;32.490;2023-02-27T15:21:47;12.53;;;7.43;;
35074;SDS011;21260;34.984;32.490;2023-02-27T15:24:34;9.17;;;8.27;;
35074;SDS011;21260;34.984;32.490;2023-02-27T15:27:06;11.80;;;7.90;;
35074;SDS011;21260;34.984;32.490;2023-02-27T15:29:40;9.93;;;6.50;;
35074;SDS011;21260;34.984;32.490;2023-02-27T15:32:35;12.43;;;7.23;;
35074;SDS011;21260;34.984;32.490;2023-02-27T15:35:11;10.13;;;7.80;;
35074;SDS011;21260;34.984;32.490;2023-02-27T15:38:00;9.33;;;8.07;;
35074;SDS011;21260;34.984;32.490;2023-02-27T15:40:28;9.33;;;8.27;;
35074;SDS011;21260;34.984;32.490;2023-02-27T15:42:57;12.50;;;8.43;;
35074;SDS011;21260;34.984;32.490;2023-02-27T15:45:30;16.30;;;9.67;;
35074;SDS011;21260;34.984;32.490;2023-02-27T15:47:59;16.23;;;9.93;;
35074;SDS011;21260;34.984;32.490;2023-02-27T15:50:46;14.70;;;10.00;;
35074;SDS011;21260;34.984;32.490;2023-02-27T15:53:24;15.13;;;10.97;;
35074;SDS011;21260;34.984;32.490;2023-02-27T15:55:54;19.37;;;11.77;;
35074;SDS011;21260;34.984;32.490;2023-02-27T15:58:33;13.37;;;11.53;;
35074;SDS011;21260;34.984;32.490;2023-02-27T16:01:12;16.63;;;11.60;;
35074;SDS011;21260;34.984;32.490;2023-02-27T16:03:49;17.43;;;12.50;;
35074;SDS011;21260;34.984;32.490;2023-02-27T16:06:39;16.57;;;12.03;;
35074;SDS011;21260;34.984;32.490;2023-02-27T16:09:28;15.87;;;13.27;;
35074;SDS011;21260;34.984;32.490;2023-02-27T16:12:10;19.60;;;14.13;;
35074;SDS011;21260;34.984;32.490;2023-02-27T16:14:42;21.37;;;14.17;;
35074;SDS011;21260;34.984;32.490;2023-02-27T16:17:20;18.20;;;13.00;;
35074;SDS011;21260;34.984;32.490;2023-02-27T16:19:58;18.67;;;13.77;;
35074;SDS011;21260;34.984;32.490;2023-02-27T16:22:26;17.53;;;13.17;;
35074;SDS011;21260;34.984;32.490;2023-02-27T16:25:06;18.90;;;12.87;;
35074;SDS011;21260;34.984;32.490;2023-02-27T16:27:45;17.80;;;13.90;;
35074;SDS011;21260;34.984;32.490;2023-02-27T16:30:15;21.80;;;13.37;;
35074;SDS011;21260;34.984;32.490;2023-02-27T16:32:41;19.77;;;13.20;;
35074;SDS011;21260;34.984;32.490;2023-02-27T16:35:15;22.10;;;13.60;;
35074;SDS011;21260;34.984;32.490;2023-02-27T16:37:45;18.00;;;13.47;;
35074;SDS011;21260;34.984;32.490;2023-02-27T16:40:19;19.30;;;13.33;;
35074;SDS011;21260;34.984;32.490;2023-02-27T16:42:49;26.83;;;12.40;;
35074;SDS011;21260;34.984;32.490;2023-02-27T16:45:25;17.07;;;12.30;;
35074;SDS011;21260;34.984;32.490;2023-02-27T16:47:57;14.57;;;12.10;;
35074;SDS011;21260;34.984;32.490;2023-02-27T16:50:41;15.27;;;12.67;;
35074;SDS011;21260;34.984;32.490;2023-02-27T16:53:07;17.27;;;11.93;;
35074;SDS011;21260;34.984;32.490;2023-02-27T16:55:34;14.37;;;12.10;;
35074;SDS011;21260;34.984;32.490;2023-02-27T16:58:10;16.00;;;12.75;;
35074;SDS011;21260;34.984;32.490;2023-02-27T17:00:39;14.30;;;12.07;;
35074;SDS011;21260;34.984;32.490;2023-02-27T17:03:07;15.87;;;12.20;;
35074;SDS011;21260;34.984;32.490;2023-02-27T17:05:38;12.93;;;11.53;;
35074;SDS011;21260;34.984;32.490;2023-02-27T17:08:05;15.87;;;11.73;;
35074;SDS011;21260;34.984;32.490;2023-02-27T17:10:54;15.68;;;12.32;;
35074;SDS011;21260;34.984;32.490;2023-02-27T17:13:22;17.87;;;12.43;;
35074;SDS011;21260;34.984;32.490;2023-02-27T17:15:49;16.50;;;12.27;;
35074;SDS011;21260;34.984;32.490;2023-02-27T17:18:18;15.83;;;11.83;;
35074;SDS011;21260;34.984;32.490;2023-02-27T17:20:46;15.97;;;11.57;;
35074;SDS011;21260;34.984;32.490;2023-02-27T17:23:15;15.63;;;11.70;;
35074;SDS011;21260;34.984;32.490;2023-02-27T17:25:45;15.83;;;11.13;;
35074;SDS011;21260;34.984;32.490;2023-02-27T17:28:12;16.73;;;11.00;;
35074;SDS011;21260;34.984;32.490;2023-02-27T17:30:41;14.57;;;11.63;;
35074;SDS011;21260;34.984;32.490;2023-02-27T17:33:16;15.13;;;10.63;;
35074;SDS011;21260;34.984;32.490;2023-02-27T17:35:45;14.10;;;10.27;;
35074;SDS011;21260;34.984;32.490;2023-02-27T17:38:11;14.73;;;10.47;;
35074;SDS011;21260;34.984;32.490;2023-02-27T17:40:38;17.03;;;10.77;;
35074;SDS011;21260;34.984;32.490;2023-02-27T17:43:07;13.80;;;10.03;;
35074;SDS011;21260;34.984;32.490;2023-02-27T17:45:37;16.37;;;9.87;;
35074;SDS011;21260;34.984;32.490;2023-02-27T17:48:07;12.33;;;9.87;;
35074;SDS011;21260;34.984;32.490;2023-02-27T17:50:33;15.50;;;10.00;;
35074;SDS011;21260;34.984;32.490;2023-02-27T17:53:00;15.20;;;9.77;;
35074;SDS011;21260;34.984;32.490;2023-02-27T17:55:34;14.30;;;9.00;;
35074;SDS011;21260;34.984;32.490;2023-02-27T17:58:04;13.73;;;9.77;;
35074;SDS011;21260;34.984;32.490;2023-02-27T18:00:44;12.27;;;9.30;;